Overview Statistics Trail Chart Weather Telemetry Raw packets
 

This is the latest recevied weather packets stored in our database for station/object Waldburg. If no packets are shown the sender has not sent any weather packets the latest 10 day(s).

<< 2 3 4 5 6 7 8 >>
Time Temp. Humidity Pressure Rain* Wind** Luminosity Snow
1788539531 26.67° C 48% 1013.7 hPa 0 mm - - -
1788537731 27.22° C 47% 1013.8 hPa 0 mm - - -
1788535931 27.78° C 46% 1014 hPa 0 mm - - -
1788534131 27.78° C 44% 1014.3 hPa 0 mm - - -
1788532330 27.78° C 45% 1014.5 hPa 0 mm - - -
1788530531 28.33° C 44% 1014.9 hPa 0 mm - - -
1788528730 27.78° C 45% 1015.2 hPa 0 mm - - -
1788526931 27.22° C 47% 1015.4 hPa 0 mm - - -
1788525130 27.78° C 47% 1015.7 hPa 0 mm - - -
1788523331 27.22° C 47% 1016 hPa 0 mm - - -
1788521530 26.67° C 49% 1016.5 hPa 0 mm - - -
1788519731 26.67° C 51% 1016.9 hPa 0 mm - - -
1788517930 25.56° C 53% 1017.6 hPa 0 mm - - -
1788516130 25° C 56% 1017.9 hPa 0 mm - - -
1788514330 24.44° C 58% 1018.3 hPa 0 mm - - -
1788512530 23.33° C 58% 1018.5 hPa 0 mm - - -
1788510730 22.22° C 61% 1018.6 hPa 0 mm - - -
1788508932 20.56° C 65% 1018.6 hPa 0 mm - - -
1788507130 18.89° C 69% 1018.9 hPa 0 mm - - -
1788505329 17.78° C 72% 1019.1 hPa 0 mm - - -
1788503530 16.67° C 75% 1019 hPa 0 mm - - -
1788501738 15.56° C 75% 1018.9 hPa 0 mm - - -
1788499930 15.56° C 76% 1019 hPa 0 mm - - -
1788498129 15.56° C 75% 1019.1 hPa 0 mm - - -
1788496329 15.56° C 75% 1019.3 hPa 0 mm - - -

* Rain since midnight (hover to see other rain measurements)
** Current wind speed in m/s (hover to see current wind gust speed)